Time;durP1;ratioP1;P1;durP2;ratioP2;P2;SDS_P1;SDS_P2;PMS_P1;PMS_P2;Temp;Humidity;BMP_temperature;BMP_pressure;BME280_temperature;BME280_humidity;BME280_pressure;Samples;Min_cycle;Max_cycle;Signal;HPM_P1;HPM_P2
2022/05/14 00:00:27;;;;;;;1999.90;999.90;;;;;;;-145.26;100.00;63821.50;5010769;28;20058;-70
2022/05/14 00:02:55;;;;;;;1999.90;999.90;;;;;;;-145.26;100.00;63821.50;5012508;28;20029;-70
2022/05/14 00:05:22;;;;;;;1999.90;999.90;;;;;;;-145.26;100.00;63821.50;5011807;28;20034;-70
2022/05/14 00:07:50;;;;;;;1999.90;999.90;;;;;;;-145.26;100.00;63821.50;5011855;28;20084;-70
2022/05/14 00:10:16;;;;;;;1999.90;999.90;;;;;;;-145.26;100.00;63821.50;5011545;28;20046;-70
2022/05/14 00:15:25;;;;;;;1999.90;999.90;;;;;;;-145.26;100.00;63821.50;5012237;28;20131;-69
2022/05/14 00:17:51;;;;;;;1999.90;999.90;;;;;;;-145.26;100.00;63821.50;5013099;28;20025;-71
2022/05/14 00:20:17;;;;;;;1999.90;999.90;;;;;;;-145.26;100.00;63821.50;5012569;28;20042;-70
2022/05/14 00:22:42;;;;;;;1999.90;999.90;;;;;;;-145.26;100.00;63821.50;5011783;28;20026;-70
2022/05/14 00:25:09;;;;;;;1999.90;999.90;;;;;;;-145.26;100.00;63821.50;5012782;28;20041;-72
2022/05/14 00:27:40;;;;;;;1999.90;999.90;;;;;;;-145.26;100.00;63821.50;5011753;28;20034;-70
2022/05/14 00:30:06;;;;;;;1999.90;999.90;;;;;;;-145.26;100.00;63821.50;5012569;28;20026;-71
2022/05/14 00:32:32;;;;;;;1999.90;999.90;;;;;;;-145.26;100.00;63821.50;5011714;28;20509;-72
2022/05/14 00:34:57;;;;;;;1999.90;999.90;;;;;;;-145.26;100.00;63821.50;5012036;28;20061;-71
2022/05/14 00:37:22;;;;;;;1999.90;999.90;;;;;;;-145.26;100.00;63821.50;5011020;28;20029;-71
2022/05/14 00:39:48;;;;;;;1999.90;999.90;;;;;;;-145.26;100.00;63821.50;5010927;28;20084;-71
2022/05/14 00:42:13;;;;;;;1999.90;999.90;;;;;;;-145.26;100.00;63821.50;5011222;28;20533;-71
2022/05/14 00:44:39;;;;;;;1999.90;999.90;;;;;;;-145.26;100.00;63821.50;5010329;28;20482;-72
2022/05/14 00:47:10;;;;;;;1999.90;999.90;;;;;;;-145.26;100.00;63821.50;5012687;28;20040;-70
2022/05/14 00:49:35;;;;;;;1999.90;999.90;;;;;;;-145.26;100.00;63821.50;5012191;28;20081;-70
2022/05/14 00:52:02;;;;;;;1999.90;999.90;;;;;;;-145.26;100.00;63821.50;5012369;28;20030;-70
2022/05/14 00:54:38;;;;;;;1999.90;999.90;;;;;;;-145.26;100.00;63821.50;5010537;28;20117;-69
2022/05/14 00:57:08;;;;;;;1999.90;999.90;;;;;;;-145.26;100.00;63821.50;5012579;28;20030;-70
2022/05/14 00:59:35;;;;;;;1999.90;999.90;;;;;;;-145.26;100.00;63821.50;5011930;28;20033;-70
2022/05/14 01:02:01;;;;;;;1999.90;999.90;;;;;;;-145.26;100.00;63821.50;5012125;28;20160;-70
2022/05/14 01:04:29;;;;;;;1999.90;999.90;;;;;;;-145.26;100.00;63821.50;5011027;28;20121;-71
2022/05/14 01:07:08;;;;;;;1999.90;999.90;;;;;;;-145.26;100.00;63821.50;5012111;28;20034;-71
2022/05/14 01:09:35;;;;;;;1999.90;999.90;;;;;;;-145.26;100.00;63821.50;5030004;23;20050;-69
2022/05/14 01:12:01;;;;;;;1999.90;999.90;;;;;;;-145.26;100.00;63821.50;4994080;28;20026;-70
2022/05/14 01:14:26;;;;;;;1999.90;999.90;;;;;;;-145.26;100.00;63821.50;5011674;28;20022;-69
2022/05/14 01:16:52;;;;;;;1999.90;999.90;;;;;;;-145.26;100.00;63821.50;5012523;28;20087;-70
2022/05/14 01:19:17;;;;;;;1999.90;999.90;;;;;;;-145.26;100.00;63821.50;4984195;28;20030;-69
2022/05/14 01:21:43;;;;;;;1999.90;999.90;;;;;;;-145.26;100.00;63821.50;4975143;28;20026;-69
2022/05/14 01:27:28;;;;;;;1999.90;999.90;;;;;;;-145.26;100.00;63821.50;4992698;28;20073;-69
2022/05/14 01:29:53;;;;;;;1999.90;999.90;;;;;;;-145.26;100.00;63821.50;4992214;28;20058;-69
2022/05/14 01:32:19;;;;;;;1999.90;999.90;;;;;;;-145.26;100.00;63821.50;4992308;28;20030;-69
2022/05/14 01:34:44;;;;;;;1999.90;999.90;;;;;;;-145.26;100.00;63821.50;4974329;28;20546;-69
2022/05/14 01:37:10;;;;;;;1999.90;999.90;;;;;;;-145.26;100.00;63821.50;4992342;28;20054;-70
2022/05/14 01:39:36;;;;;;;1999.90;999.90;;;;;;;-145.26;100.00;63821.50;4974074;28;20088;-70
2022/05/14 01:42:03;;;;;;;1999.90;999.90;;;;;;;-145.26;100.00;63821.50;4992252;28;20030;-69
2022/05/14 01:44:29;;;;;;;1999.90;999.90;;;;;;;-145.26;100.00;63821.50;4974625;28;20530;-68
2022/05/14 01:46:54;;;;;;;1999.90;999.90;;;;;;;-145.26;100.00;63821.50;4970624;28;20130;-68
2022/05/14 01:49:19;;;;;;;1999.90;999.90;;;;;;;-145.26;100.00;63821.50;4972316;28;20114;-68
2022/05/14 01:51:45;;;;;;;1999.90;999.90;;;;;;;-145.26;100.00;63821.50;4972489;28;20038;-68
2022/05/14 01:54:11;;;;;;;1999.90;999.90;;;;;;;-145.26;100.00;63821.50;4988148;28;20038;-68
2022/05/14 01:56:36;;;;;;;1999.90;999.90;;;;;;;-145.26;100.00;63821.50;4974586;28;20058;-68
2022/05/14 01:59:02;;;;;;;1999.90;999.90;;;;;;;-145.26;100.00;63821.50;4974179;28;20565;-68
2022/05/14 02:01:30;;;;;;;1999.90;999.90;;;;;;;-145.26;100.00;63821.50;4992003;28;20101;-69
2022/05/14 02:04:00;;;;;;;1999.90;999.90;;;;;;;-145.26;100.00;63821.50;4973887;28;20117;-68
2022/05/14 02:06:28;;;;;;;1999.90;999.90;;;;;;;-145.26;100.00;63821.50;4974315;28;20022;-68
2022/05/14 02:08:53;;;;;;;1999.90;999.90;;;;;;;-145.26;100.00;63821.50;4964758;28;20100;-70
2022/05/14 02:11:21;;;;;;;1999.90;999.90;;;;;;;-145.26;100.00;63821.50;4972622;28;20054;-68
2022/05/14 02:13:47;;;;;;;1999.90;999.90;;;;;;;-145.26;100.00;63821.50;4972597;28;20019;-68
2022/05/14 02:16:12;;;;;;;1999.90;999.90;;;;;;;-145.26;100.00;63821.50;4982292;28;20395;-68
2022/05/14 02:18:38;;;;;;;1999.90;999.90;;;;;;;-145.26;100.00;63821.50;4988766;28;20025;-68
2022/05/14 02:21:04;;;;;;;1999.90;999.90;;;;;;;-145.26;100.00;63821.50;4990077;28;20033;-68
2022/05/14 02:23:31;;;;;;;1999.90;999.90;;;;;;;-145.26;100.00;63821.50;4989760;28;20018;-68
2022/05/14 02:25:56;;;;;;;1999.90;999.90;;;;;;;-145.26;100.00;63821.50;4989992;28;20606;-69
2022/05/14 02:28:22;;;;;;;1999.90;999.90;;;;;;;-145.26;100.00;63821.50;4989603;28;20046;-68
2022/05/14 02:30:47;;;;;;;1999.90;999.90;;;;;;;-145.26;100.00;63821.50;4991360;28;20748;-69
2022/05/14 02:33:13;;;;;;;1999.90;999.90;;;;;;;-145.26;100.00;63821.50;4990069;28;20034;-68
2022/05/14 02:35:40;;;;;;;1999.90;999.90;;;;;;;-145.26;100.00;63821.50;4989980;28;20494;-68
2022/05/14 02:38:06;;;;;;;1999.90;999.90;;;;;;;-145.26;100.00;63821.50;4990115;28;20034;-68
2022/05/14 02:40:31;;;;;;;1999.90;999.90;;;;;;;-145.26;100.00;63821.50;4989740;28;20471;-68
2022/05/14 02:42:57;;;;;;;1999.90;999.90;;;;;;;-145.26;100.00;63821.50;4989822;28;20033;-68
2022/05/14 02:45:23;;;;;;;1999.90;999.90;;;;;;;-145.26;100.00;63821.50;4990042;28;20499;-68
2022/05/14 02:47:49;;;;;;;1999.90;999.90;;;;;;;-145.26;100.00;63821.50;4989836;28;20023;-68
2022/05/14 02:50:15;;;;;;;1999.90;999.90;;;;;;;-145.26;100.00;63821.50;4989523;28;20348;-68
2022/05/14 02:52:41;;;;;;;1999.90;999.90;;;;;;;-145.26;100.00;63821.50;4990671;28;20019;-68
2022/05/14 02:55:07;;;;;;;1999.90;999.90;;;;;;;-145.26;100.00;63821.50;4976521;28;20030;-68
2022/05/14 02:57:34;;;;;;;1999.90;999.90;;;;;;;-145.26;100.00;63821.50;4971491;28;20092;-68
2022/05/14 03:00:00;;;;;;;1999.90;999.90;;;;;;;-145.26;100.00;63821.50;4969705;28;20062;-68
2022/05/14 03:02:25;;;;;;;1999.90;999.90;;;;;;;-145.26;100.00;63821.50;4970051;28;20537;-74
2022/05/14 03:04:50;;;;;;;1999.90;999.90;;;;;;;-145.26;100.00;63821.50;4981151;28;20038;-68
2022/05/14 03:07:16;;;;;;;1999.90;999.90;;;;;;;-145.26;100.00;63821.50;4989282;28;20023;-69
2022/05/14 03:09:42;;;;;;;1999.90;999.90;;;;;;;-145.26;100.00;63821.50;4988791;28;20360;-69
2022/05/14 03:12:10;;;;;;;1999.90;999.90;;;;;;;-145.26;100.00;63821.50;4990755;28;20030;-68
2022/05/14 03:14:36;;;;;;;1999.90;999.90;;;;;;;-145.26;100.00;63821.50;4973246;28;20109;-68
2022/05/14 03:17:01;;;;;;;1999.90;999.90;;;;;;;-145.26;100.00;63821.50;4989289;28;20164;-68
2022/05/14 03:19:26;;;;;;;1999.90;999.90;;;;;;;-145.26;100.00;63821.50;4990327;28;20027;-69
2022/05/14 03:21:52;;;;;;;1999.90;999.90;;;;;;;-145.26;100.00;63821.50;4990554;28;20037;-69
2022/05/14 03:24:19;;;;;;;1999.90;999.90;;;;;;;-145.26;100.00;63821.50;4988764;28;20127;-69
2022/05/14 03:26:45;;;;;;;1999.90;999.90;;;;;;;-145.26;100.00;63821.50;4972986;28;20030;-68
2022/05/14 03:29:11;;;;;;;1999.90;999.90;;;;;;;-145.26;100.00;63821.50;4972457;28;20490;-69
2022/05/14 03:31:38;;;;;;;1999.90;999.90;;;;;;;-145.26;100.00;63821.50;4990582;28;20030;-69
2022/05/14 03:34:04;;;;;;;1999.90;999.90;;;;;;;-145.26;100.00;63821.50;4989550;28;20472;-69
2022/05/14 03:36:30;;;;;;;1999.90;999.90;;;;;;;-145.26;100.00;63821.50;4993497;28;20038;-69
2022/05/14 03:38:55;;;;;;;1999.90;999.90;;;;;;;-145.26;100.00;63821.50;4994021;28;20018;-69
2022/05/14 03:41:21;;;;;;;1999.90;999.90;;;;;;;-145.26;100.00;63821.50;4993292;28;20034;-69
2022/05/14 03:43:48;;;;;;;1999.90;999.90;;;;;;;-145.26;100.00;63821.50;4994411;28;20022;-69
2022/05/14 03:46:13;;;;;;;1999.90;999.90;;;;;;;-145.26;100.00;63821.50;4993362;28;20022;-69
2022/05/14 03:48:39;;;;;;;1999.90;999.90;;;;;;;-145.26;100.00;63821.50;4975808;28;20073;-68
2022/05/14 03:51:05;;;;;;;1999.90;999.90;;;;;;;-145.26;100.00;63821.50;4994149;28;20506;-69
2022/05/14 03:53:31;;;;;;;1999.90;999.90;;;;;;;-145.26;100.00;63821.50;4993983;28;20163;-69
2022/05/14 03:55:57;;;;;;;1999.90;999.90;;;;;;;-145.26;100.00;63821.50;4993319;28;20549;-69
2022/05/14 03:58:23;;;;;;;1999.90;999.90;;;;;;;-145.26;100.00;63821.50;4993246;28;20026;-68
2022/05/14 04:00:49;;;;;;;1999.90;999.90;;;;;;;-145.26;100.00;63821.50;4976261;28;20023;-69
2022/05/14 04:03:14;;;;;;;1999.90;999.90;;;;;;;-145.26;100.00;63821.50;4992880;28;20109;-69
2022/05/14 04:05:39;;;;;;;1999.90;999.90;;;;;;;-145.26;100.00;63821.50;4993736;28;20030;-71
2022/05/14 04:08:05;;;;;;;1999.90;999.90;;;;;;;-145.26;100.00;63821.50;4993398;28;20022;-69
2022/05/14 04:10:31;;;;;;;1999.90;999.90;;;;;;;-145.26;100.00;63821.50;4992574;28;20022;-69
2022/05/14 04:12:56;;;;;;;1999.90;999.90;;;;;;;-145.26;100.00;63821.50;4993171;28;20084;-69
2022/05/14 04:15:25;;;;;;;1999.90;999.90;;;;;;;-145.26;100.00;63821.50;4993622;28;20525;-69
2022/05/14 04:17:54;;;;;;;1999.90;999.90;;;;;;;-145.26;100.00;63821.50;4976383;28;20054;-69
2022/05/14 04:20:21;;;;;;;1999.90;999.90;;;;;;;-145.26;100.00;63821.50;4989116;28;20561;-69
2022/05/14 04:22:47;;;;;;;1999.90;999.90;;;;;;;-145.26;100.00;63821.50;4974469;28;20074;-69
2022/05/14 04:25:13;;;;;;;1999.90;999.90;;;;;;;-145.26;100.00;63821.50;4972828;28;20030;-69
2022/05/14 04:27:41;;;;;;;1999.90;999.90;;;;;;;-145.26;100.00;63821.50;4992703;28;20054;-69
2022/05/14 04:30:08;;;;;;;1999.90;999.90;;;;;;;-145.26;100.00;63821.50;4975546;28;20115;-69
2022/05/14 04:32:34;;;;;;;1999.90;999.90;;;;;;;-145.26;100.00;63821.50;4992255;28;20034;-69
2022/05/14 04:35:00;;;;;;;1999.90;999.90;;;;;;;-145.26;100.00;63821.50;4975698;28;20019;-69
2022/05/14 04:37:25;;;;;;;1999.90;999.90;;;;;;;-145.26;100.00;63821.50;4976070;28;20023;-70
2022/05/14 04:39:50;;;;;;;1999.90;999.90;;;;;;;-145.26;100.00;63821.50;4992625;28;20081;-69
2022/05/14 04:42:16;;;;;;;1999.90;999.90;;;;;;;-145.26;100.00;63821.50;4974823;28;20042;-69
2022/05/14 04:44:42;;;;;;;1999.90;999.90;;;;;;;-145.26;100.00;63821.50;4975531;28;20475;-69
2022/05/14 04:47:08;;;;;;;1999.90;999.90;;;;;;;-145.26;100.00;63821.50;4991932;28;20940;-69
2022/05/14 04:49:42;;;;;;;1999.90;999.90;;;;;;;-145.26;100.00;63821.50;4974830;28;20498;-69
2022/05/14 04:52:08;;;;;;;1999.90;999.90;;;;;;;-145.26;100.00;63821.50;4993084;28;20026;-69
2022/05/14 04:54:33;;;;;;;1999.90;999.90;;;;;;;-145.26;100.00;63821.50;4974967;28;20026;-69
2022/05/14 04:56:59;;;;;;;1999.90;999.90;;;;;;;-145.26;100.00;63821.50;4974632;28;20037;-70
2022/05/14 04:59:24;;;;;;;1999.90;999.90;;;;;;;-145.26;100.00;63821.50;4991374;28;20037;-70
2022/05/14 05:04:34;;;;;;;1999.90;999.90;;;;;;;-145.26;100.00;63821.50;4992803;28;20501;-69
2022/05/14 05:07:00;;;;;;;1999.90;999.90;;;;;;;-145.26;100.00;63821.50;4992088;28;20057;-69
2022/05/14 05:09:26;;;;;;;1999.90;999.90;;;;;;;-145.26;100.00;63821.50;4981773;28;20034;-69
2022/05/14 05:11:52;;;;;;;1999.90;999.90;;;;;;;-145.26;100.00;63821.50;4990179;28;20030;-69
2022/05/14 05:14:17;;;;;;;1999.90;999.90;;;;;;;-145.26;100.00;63821.50;4991379;28;20018;-69
2022/05/14 05:16:43;;;;;;;1999.90;999.90;;;;;;;-145.26;100.00;63821.50;4990464;28;20037;-69
2022/05/14 05:19:08;;;;;;;1999.90;999.90;;;;;;;-145.26;100.00;63821.50;4991477;28;20758;-69
2022/05/14 05:21:34;;;;;;;1999.90;999.90;;;;;;;-145.26;100.00;63821.50;4991142;28;20113;-69
2022/05/14 05:24:00;;;;;;;1999.90;999.90;;;;;;;-145.26;100.00;63821.50;4992234;28;20026;-69
2022/05/14 05:26:25;;;;;;;1999.90;999.90;;;;;;;-145.26;100.00;63821.50;4989426;28;20030;-69
2022/05/14 05:28:51;;;;;;;1999.90;999.90;;;;;;;-145.26;100.00;63821.50;4990830;28;20088;-69
2022/05/14 05:31:17;;;;;;;1999.90;999.90;;;;;;;-145.26;100.00;63821.50;4992702;28;20037;-69
2022/05/14 05:33:43;;;;;;;1999.90;999.90;;;;;;;-145.26;100.00;63821.50;4990884;28;20434;-69
2022/05/14 05:36:09;;;;;;;1999.90;999.90;;;;;;;-145.26;100.00;63821.50;4992326;28;20022;-69
2022/05/14 05:38:34;;;;;;;1999.90;999.90;;;;;;;-145.26;100.00;63821.50;4986465;28;20119;-70
2022/05/14 05:40:59;;;;;;;1999.90;999.90;;;;;;;-145.26;100.00;63821.50;4972650;28;20047;-69
2022/05/14 05:43:25;;;;;;;1999.90;999.90;;;;;;;-145.26;100.00;63821.50;4990242;28;20084;-70
2022/05/14 05:45:50;;;;;;;1999.90;999.90;;;;;;;-145.26;100.00;63821.50;4992216;28;20037;-70
2022/05/14 05:48:16;;;;;;;1999.90;999.90;;;;;;;-145.26;100.00;63821.50;4990456;28;20038;-69
2022/05/14 05:50:44;;;;;;;1999.90;999.90;;;;;;;-145.26;100.00;63821.50;4990754;28;20491;-69
2022/05/14 05:53:10;;;;;;;1999.90;999.90;;;;;;;-145.26;100.00;63821.50;4990804;28;20026;-68
2022/05/14 05:58:20;;;;;;;1999.90;999.90;;;;;;;-145.26;100.00;63821.50;4989348;28;20045;-69
2022/05/14 06:00:46;;;;;;;1999.90;999.90;;;;;;;-145.26;100.00;63821.50;4989847;28;20439;-69
2022/05/14 06:03:12;;;;;;;1999.90;999.90;;;;;;;-145.26;100.00;63821.50;4990721;28;20574;-68
2022/05/14 06:05:38;;;;;;;1999.90;999.90;;;;;;;-145.26;100.00;63821.50;4991494;28;20034;-69
2022/05/14 06:08:12;;;;;;;1999.90;999.90;;;;;;;-145.26;100.00;63821.50;4990669;28;20038;-70
2022/05/14 06:10:38;;;;;;;1999.90;999.90;;;;;;;-145.26;100.00;63821.50;4991378;28;20592;-69
2022/05/14 06:13:05;;;;;;;1999.90;999.90;;;;;;;-145.26;100.00;63821.50;4989298;28;20534;-69
2022/05/14 06:15:30;;;;;;;1999.90;999.90;;;;;;;-145.26;100.00;63821.50;4991323;28;20575;-69
2022/05/14 06:18:03;;;;;;;1999.90;999.90;;;;;;;-145.26;100.00;63821.50;4991130;28;20076;-70
2022/05/14 06:20:28;;;;;;;1999.90;999.90;;;;;;;-145.26;100.00;63821.50;4989585;28;20030;-69
2022/05/14 06:22:54;;;;;;;1999.90;999.90;;;;;;;-145.26;100.00;63821.50;4989263;28;20029;-70
2022/05/14 06:25:19;;;;;;;1999.90;999.90;;;;;;;-145.26;100.00;63821.50;4990012;28;20475;-69
2022/05/14 06:27:45;;;;;;;1999.90;999.90;;;;;;;-145.26;100.00;63821.50;4989432;28;20030;-69
2022/05/14 06:30:11;;;;;;;1999.90;999.90;;;;;;;-145.26;100.00;63821.50;4989626;28;20034;-69
2022/05/14 06:32:36;;;;;;;1999.90;999.90;;;;;;;-145.26;100.00;63821.50;4991000;28;20767;-69
2022/05/14 06:35:03;;;;;;;1999.90;999.90;;;;;;;-145.26;100.00;63821.50;4989742;28;20010;-68
2022/05/14 06:37:28;;;;;;;1999.90;999.90;;;;;;;-145.26;100.00;63821.50;4990856;28;20049;-70
2022/05/14 06:39:53;;;;;;;1999.90;999.90;;;;;;;-145.26;100.00;63821.50;4988485;28;20022;-70
2022/05/14 06:42:19;;;;;;;1999.90;999.90;;;;;;;-145.26;100.00;63821.50;4990858;28;20438;-69
2022/05/14 06:44:44;;;;;;;1999.90;999.90;;;;;;;-145.26;100.00;63821.50;4978143;28;20113;-69
2022/05/14 06:47:09;;;;;;;1999.90;999.90;;;;;;;-145.26;100.00;63821.50;4986386;28;20042;-69
2022/05/14 06:49:35;;;;;;;1999.90;999.90;;;;;;;-145.26;100.00;63821.50;4975963;28;20037;-69
2022/05/14 06:52:03;;;;;;;1999.90;999.90;;;;;;;-145.26;100.00;63821.50;4990059;28;20507;-69
2022/05/14 06:54:30;;;;;;;1999.90;999.90;;;;;;;-145.26;100.00;63821.50;4988552;28;20505;-69
2022/05/14 06:56:55;;;;;;;1999.90;999.90;;;;;;;-145.26;100.00;63821.50;4990734;28;20038;-70
2022/05/14 06:59:20;;;;;;;1999.90;999.90;;;;;;;-145.26;100.00;63821.50;4987495;28;20022;-70
2022/05/14 07:01:47;;;;;;;1999.90;999.90;;;;;;;-145.26;100.00;63821.50;4989560;28;20030;-70
2022/05/14 07:07:03;;;;;;;1999.90;999.90;;;;;;;-145.26;100.00;63821.50;4990623;28;20112;-69
2022/05/14 07:09:29;;;;;;;1999.90;999.90;;;;;;;-145.26;100.00;63821.50;4988127;28;20053;-69
2022/05/14 07:12:03;;;;;;;1999.90;999.90;;;;;;;-145.26;100.00;63821.50;4989047;28;20394;-70
2022/05/14 07:14:29;;;;;;;1999.90;999.90;;;;;;;-145.26;100.00;63821.50;4989629;28;20120;-69
2022/05/14 07:16:55;;;;;;;1999.90;999.90;;;;;;;-145.26;100.00;63821.50;4989902;28;20037;-70
2022/05/14 07:19:21;;;;;;;1999.90;999.90;;;;;;;-145.26;100.00;63821.50;4990010;28;20023;-66
2022/05/14 07:21:47;;;;;;;1999.90;999.90;;;;;;;-145.26;100.00;63821.50;4988285;28;20106;-67
2022/05/14 07:24:19;;;;;;;1999.90;999.90;;;;;;;-145.26;100.00;63821.50;4989945;28;20023;-68
2022/05/14 07:26:45;;;;;;;;;;;;;;;-145.26;100.00;63821.50;4987752;28;20043;-68
2022/05/14 07:29:14;;;;;;;1999.90;999.90;;;;;;;-145.26;100.00;63821.50;4986355;28;20290;-67
2022/05/14 07:31:40;;;;;;;1999.90;999.90;;;;;;;-145.26;100.00;63821.50;4989054;28;20125;-66
2022/05/14 07:34:06;;;;;;;1999.90;999.90;;;;;;;-145.26;100.00;63821.50;4988096;28;20109;-67
2022/05/14 07:36:40;;;;;;;1999.90;999.90;;;;;;;-145.26;100.00;63821.50;4988190;28;20026;-67
2022/05/14 07:39:06;;;;;;;1999.90;999.90;;;;;;;-145.26;100.00;63821.50;4987594;28;20093;-66
2022/05/14 07:41:34;;;;;;;1999.90;999.90;;;;;;;-145.26;100.00;63821.50;4988471;28;20038;-65
2022/05/14 07:44:13;;;;;;;1999.90;999.90;;;;;;;-145.26;100.00;63821.50;4988743;28;20088;-65
2022/05/14 07:46:40;;;;;;;1999.90;999.90;;;;;;;-145.26;100.00;63821.50;4988203;28;20860;-65
2022/05/14 07:49:10;;;;;;;1999.90;999.90;;;;;;;-145.26;100.00;63821.50;4984457;28;20105;-66
2022/05/14 07:51:37;;;;;;;1999.90;999.90;;;;;;;-145.26;100.00;63821.50;4988209;28;20054;-67
2022/05/14 07:54:03;;;;;;;1999.90;999.90;;;;;;;-145.26;100.00;63821.50;4988890;28;20094;-67
2022/05/14 07:56:28;;;;;;;1999.90;999.90;;;;;;;-145.26;100.00;63821.50;4986491;28;20042;-66
2022/05/14 07:58:54;;;;;;;1999.90;999.90;;;;;;;-145.26;100.00;63821.50;4986378;28;20387;-69
2022/05/14 08:01:19;;;;;;;1999.90;999.90;;;;;;;-145.26;100.00;63821.50;4987214;28;20026;-67
2022/05/14 08:03:47;;;;;;;1999.90;999.90;;;;;;;-145.26;100.00;63821.50;4987051;28;20038;-67
2022/05/14 08:06:15;;;;;;;1999.90;999.90;;;;;;;-145.26;100.00;63821.50;4982288;28;20030;-66
2022/05/14 08:08:40;;;;;;;1999.90;999.90;;;;;;;-145.26;100.00;63821.50;4989038;28;20026;-65
2022/05/14 08:11:06;;;;;;;1999.90;999.90;;;;;;;-145.26;100.00;63821.50;4991168;28;20092;-65
2022/05/14 08:13:34;;;;;;;1999.90;999.90;;;;;;;-145.26;100.00;63821.50;4989498;28;20057;-65
2022/05/14 08:16:00;;;;;;;1999.90;999.90;;;;;;;-145.26;100.00;63821.50;4969274;28;20035;-65
2022/05/14 08:18:26;;;;;;;1999.90;999.90;;;;;;;-145.26;100.00;63821.50;4989308;28;20510;-66
2022/05/14 08:20:51;;;;;;;1999.90;999.90;;;;;;;-145.26;100.00;63821.50;4986959;28;20022;-65
2022/05/14 08:26:03;;;;;;;1999.90;999.90;;;;;;;-145.26;100.00;63821.50;4992196;28;20041;-66
2022/05/14 08:28:29;;;;;;;1999.90;999.90;;;;;;;-145.26;100.00;63821.50;4992767;28;20039;-65
2022/05/14 08:30:55;;;;;;;1999.90;999.90;;;;;;;-145.26;100.00;63821.50;4990497;28;20026;-65
2022/05/14 08:33:20;;;;;;;1999.90;999.90;;;;;;;-145.26;100.00;63821.50;4992105;28;20030;-65
2022/05/14 08:35:47;;;;;;;1999.90;999.90;;;;;;;-145.26;100.00;63821.50;4992291;28;20105;-65
2022/05/14 08:38:15;;;;;;;1999.90;999.90;;;;;;;-145.26;100.00;63821.50;4991411;28;20037;-64
2022/05/14 08:41:01;;;;;;;1999.90;999.90;;;;;;;-145.26;100.00;63821.50;4991104;28;20025;-65
2022/05/14 08:43:33;;;;;;;1999.90;999.90;;;;;;;-145.26;100.00;63821.50;4991305;28;20049;-65
2022/05/14 08:45:59;;;;;;;1999.90;999.90;;;;;;;-145.26;100.00;63821.50;4990968;28;20034;-64
2022/05/14 08:48:26;;;;;;;1999.90;999.90;;;;;;;-145.26;100.00;63821.50;4991159;28;20061;-65
2022/05/14 08:51:03;;;;;;;1999.90;999.90;;;;;;;-145.26;100.00;63821.50;4991544;28;20026;-65
2022/05/14 08:53:30;;;;;;;1999.90;999.90;;;;;;;-145.26;100.00;63821.50;4974069;28;20491;-65
2022/05/14 08:56:07;;;;;;;1999.90;999.90;;;;;;;-145.26;100.00;63821.50;4975217;28;20030;-65
2022/05/14 08:58:54;;;;;;;1999.90;999.90;;;;;;;-145.26;100.00;63821.50;4991241;28;20035;-64
2022/05/14 09:01:24;;;;;;;1999.90;999.90;;;;;;;-145.26;100.00;63821.50;4973416;28;20023;-65
2022/05/14 09:03:50;;;;;;;1999.90;999.90;;;;;;;-145.26;100.00;63821.50;4991369;28;20109;-65
2022/05/14 09:06:15;;;;;;;1999.90;999.90;;;;;;;-145.26;100.00;63821.50;4990629;28;20165;-67
2022/05/14 09:08:41;;;;;;;1999.90;999.90;;;;;;;-145.26;100.00;63821.50;4990564;28;20041;-66
2022/05/14 09:11:27;;;;;;;1999.90;999.90;;;;;;;-145.26;100.00;63821.50;4972084;28;20117;-65
2022/05/14 09:13:57;;;;;;;1999.90;999.90;;;;;;;-145.26;100.00;63821.50;4990074;28;20479;-65
2022/05/14 09:16:31;;;;;;;1999.90;999.90;;;;;;;-145.26;100.00;63821.50;4990569;28;20026;-66
2022/05/14 09:18:57;;;;;;;1999.90;999.90;;;;;;;-145.26;100.00;63821.50;4991857;28;20026;-65
2022/05/14 09:21:36;;;;;;;1999.90;999.90;;;;;;;-145.26;100.00;63821.50;4972991;28;20030;-65
2022/05/14 09:24:25;;;;;;;1999.90;999.90;;;;;;;-145.26;100.00;63821.50;4979598;28;20109;-65
2022/05/14 09:26:56;;;;;;;1999.90;999.90;;;;;;;-145.26;100.00;63821.50;4992289;28;20306;-65
2022/05/14 09:29:35;;;;;;;1999.90;999.90;;;;;;;-145.26;100.00;63821.50;4991741;28;20549;-65
2022/05/14 09:32:21;;;;;;;1999.90;999.90;;;;;;;-145.26;100.00;63821.50;4991306;28;20035;-66
2022/05/14 09:34:47;;;;;;;1999.90;999.90;;;;;;;-145.26;100.00;63821.50;4990035;28;20092;-71
2022/05/14 09:37:21;;;;;;;1999.90;999.90;;;;;;;-145.26;100.00;63821.50;4992041;28;20031;-70
2022/05/14 09:39:57;;;;;;;1999.90;999.90;;;;;;;-145.26;100.00;63821.50;4990946;28;20029;-70
2022/05/14 09:42:25;;;;;;;1999.90;999.90;;;;;;;-145.26;100.00;63821.50;4990777;28;20041;-70
2022/05/14 09:44:53;;;;;;;1999.90;999.90;;;;;;;-145.26;100.00;63821.50;4990991;28;20122;-70
2022/05/14 09:47:33;;;;;;;1999.90;999.90;;;;;;;-145.26;100.00;63821.50;4989199;28;20096;-69
2022/05/14 09:50:05;;;;;;;1999.90;999.90;;;;;;;-145.26;100.00;63821.50;4990877;28;20031;-69
2022/05/14 09:52:33;;;;;;;1999.90;999.90;;;;;;;-145.26;100.00;63821.50;4974140;28;20109;-72
2022/05/14 09:55:04;;;;;;;1999.90;999.90;;;;;;;-145.26;100.00;63821.50;4989463;28;20451;-71
2022/05/14 09:57:53;;;;;;;1999.90;999.90;;;;;;;-145.26;100.00;63821.50;4991050;28;20394;-69
2022/05/14 10:00:29;;;;;;;1999.90;999.90;;;;;;;-145.26;100.00;63821.50;4989991;28;20034;-70
2022/05/14 10:02:55;;;;;;;1999.90;999.90;;;;;;;-145.26;100.00;63821.50;4987674;28;20117;-69
2022/05/14 10:05:47;;;;;;;1999.90;999.90;;;;;;;-145.26;100.00;63821.50;4990695;28;20110;-69
2022/05/14 10:08:20;;;;;;;;;;;;;;;-145.26;100.00;63821.50;4990109;28;20531;-70
2022/05/14 10:11:00;;;;;;;1999.90;999.90;;;;;;;-145.26;100.00;63821.50;4990792;28;19924;-71
2022/05/14 10:14:00;;;;;;;1999.90;999.90;;;;;;;-145.26;100.00;63821.50;4991459;28;20499;-73
2022/05/14 10:16:34;;;;;;;1999.90;999.90;;;;;;;-145.26;100.00;63821.50;4987397;28;20041;-69
2022/05/14 10:19:24;;;;;;;1999.90;999.90;;;;;;;-145.26;100.00;63821.50;4991065;28;20030;-70
2022/05/14 10:21:52;;;;;;;1999.90;999.90;;;;;;;-145.26;100.00;63821.50;4991209;28;20029;-70
2022/05/14 10:27:52;;;;;;;1999.90;999.90;;;;;;;-145.26;100.00;63821.50;4978592;28;20037;-70
2022/05/14 10:30:25;;;;;;;1999.90;999.90;;;;;;;-145.26;100.00;63821.50;4988900;28;20126;-70
2022/05/14 10:33:17;;;;;;;1999.90;999.90;;;;;;;-145.26;100.00;63821.50;4987662;28;20066;-69
2022/05/14 10:35:43;;;;;;;1999.90;999.90;;;;;;;-145.26;100.00;63821.50;4983874;28;20483;-69
2022/05/14 10:38:14;;;;;;;1999.90;999.90;;;;;;;-145.26;100.00;63821.50;4984316;28;20042;-69
2022/05/14 10:40:44;;;;;;;;;;;;;;;-145.26;100.00;63821.50;4988381;28;20042;-69
2022/05/14 10:43:49;;;;;;;1999.90;999.90;;;;;;;-145.26;100.00;63821.50;4987955;28;20009;-69
2022/05/14 10:46:20;;;;;;;1999.90;999.90;;;;;;;-145.26;100.00;63821.50;4987085;28;20092;-70
2022/05/14 10:48:57;;;;;;;1999.90;999.90;;;;;;;-145.26;100.00;63821.50;4986344;28;20468;-67
2022/05/14 10:51:27;;;;;;;1999.90;999.90;;;;;;;-145.26;100.00;63821.50;4973183;28;20026;-70
2022/05/14 10:53:53;;;;;;;1999.90;999.90;;;;;;;-145.26;100.00;63821.50;4971357;28;20029;-69
2022/05/14 10:56:35;;;;;;;1999.90;999.90;;;;;;;-145.26;100.00;63821.50;4971632;28;20026;-71
2022/05/14 10:59:00;;;;;;;1999.90;999.90;;;;;;;-145.26;100.00;63821.50;4971069;28;20841;-68